createdAt,value
2018-07-11T00:01:16.004Z,17.50
2018-07-11T00:03:46.368Z,17.50
2018-07-11T00:06:15.913Z,17.50
2018-07-11T00:08:44.287Z,17.40
2018-07-11T00:11:12.868Z,17.40
2018-07-11T00:13:42.871Z,17.40
2018-07-11T00:16:11.277Z,17.30
2018-07-11T00:18:40.164Z,17.40
2018-07-11T00:21:08.503Z,17.40
2018-07-11T00:23:36.908Z,17.30
2018-07-11T00:26:06.179Z,17.30
2018-07-11T00:28:34.481Z,17.30
2018-07-11T00:31:02.892Z,17.30
2018-07-11T00:33:31.428Z,17.20
2018-07-11T00:35:59.791Z,17.20
2018-07-11T00:38:28.232Z,17.20
2018-07-11T00:40:56.605Z,17.20
2018-07-11T00:45:59.119Z,17.10
2018-07-11T00:48:27.422Z,17.10
2018-07-11T00:53:25.584Z,17.00
2018-07-11T00:55:54.054Z,17.00
2018-07-11T00:58:27.693Z,17.00
2018-07-11T01:01:07.437Z,17.00
2018-07-11T01:06:16.258Z,17.00
2018-07-11T01:08:44.692Z,16.90
2018-07-11T01:11:15.213Z,16.90
2018-07-11T01:13:44.778Z,16.90
2018-07-11T01:16:15.656Z,16.90
2018-07-11T01:18:47.044Z,16.90
2018-07-11T01:21:15.345Z,16.90
2018-07-11T01:23:43.692Z,16.90
2018-07-11T01:26:12.130Z,16.80
2018-07-11T01:28:40.488Z,16.80
2018-07-11T01:31:08.851Z,16.80
2018-07-11T01:33:37.307Z,16.80
2018-07-11T01:36:05.697Z,16.80
2018-07-11T01:38:34.070Z,16.80
2018-07-11T01:41:02.555Z,16.80
2018-07-11T01:43:30.905Z,16.80
2018-07-11T01:45:59.232Z,16.70
2018-07-11T01:48:27.564Z,16.80
2018-07-11T01:50:55.995Z,16.80
2018-07-11T01:53:24.434Z,16.80
2018-07-11T01:55:52.791Z,16.80
2018-07-11T01:58:21.157Z,16.70
2018-07-11T02:00:49.494Z,16.70
2018-07-11T02:03:17.984Z,16.70
2018-07-11T02:05:46.368Z,16.70
2018-07-11T02:08:14.716Z,16.60
2018-07-11T02:10:43.112Z,16.60
2018-07-11T02:13:11.458Z,16.60
2018-07-11T02:15:40.100Z,16.60
2018-07-11T02:18:08.468Z,16.60
2018-07-11T02:20:36.834Z,16.60
2018-07-11T02:23:05.634Z,16.60
2018-07-11T02:25:33.936Z,16.50
2018-07-11T02:28:02.262Z,16.50
2018-07-11T02:30:30.606Z,16.50
2018-07-11T02:32:58.964Z,16.50
2018-07-11T02:35:27.650Z,16.40
2018-07-11T02:37:55.960Z,16.40
2018-07-11T02:40:24.332Z,16.40
2018-07-11T02:42:52.700Z,16.40
2018-07-11T02:45:21.053Z,16.30
2018-07-11T02:47:49.413Z,16.30
2018-07-11T02:50:17.799Z,16.30
2018-07-11T02:52:46.181Z,16.30
2018-07-11T02:55:14.601Z,16.30
2018-07-11T02:57:43.015Z,16.30
2018-07-11T03:00:11.405Z,16.30
2018-07-11T03:02:39.806Z,16.30
2018-07-11T03:05:08.256Z,16.30
2018-07-11T03:07:36.634Z,16.30
2018-07-11T03:10:04.922Z,16.30
2018-07-11T03:12:33.332Z,16.30
2018-07-11T03:15:01.694Z,16.40
2018-07-11T03:17:30.060Z,16.40
2018-07-11T03:19:58.381Z,16.40
2018-07-11T03:22:26.739Z,16.50
2018-07-11T03:24:55.223Z,16.40
2018-07-11T03:27:23.576Z,16.50
2018-07-11T03:29:51.934Z,16.60
2018-07-11T03:32:20.286Z,16.60
2018-07-11T03:34:48.651Z,16.70
2018-07-11T03:37:17.017Z,16.70
2018-07-11T03:39:45.392Z,16.70
2018-07-11T03:42:13.747Z,16.70
2018-07-11T03:44:42.107Z,16.70
2018-07-11T03:47:10.552Z,16.70
2018-07-11T03:49:38.937Z,16.70
2018-07-11T03:52:07.306Z,16.70
2018-07-11T03:54:35.635Z,16.70
2018-07-11T03:57:03.996Z,16.70
2018-07-11T03:59:32.328Z,16.70
2018-07-11T04:02:00.664Z,16.70
2018-07-11T04:04:28.989Z,16.70
2018-07-11T04:06:57.368Z,16.70
2018-07-11T04:09:25.760Z,16.80
2018-07-11T04:11:54.307Z,16.80
2018-07-11T04:14:22.752Z,16.80
2018-07-11T04:16:51.110Z,16.80
2018-07-11T04:19:19.448Z,16.80
2018-07-11T04:21:47.823Z,16.80
2018-07-11T04:24:16.180Z,16.80
2018-07-11T04:26:44.544Z,16.80
2018-07-11T04:29:13.010Z,16.80
2018-07-11T04:31:41.331Z,16.90
2018-07-11T04:34:09.740Z,16.90
2018-07-11T04:36:38.192Z,16.90
2018-07-11T04:39:06.504Z,17.00
2018-07-11T04:41:34.929Z,17.00
2018-07-11T04:44:03.396Z,17.00
2018-07-11T04:46:31.770Z,17.10
2018-07-11T04:49:00.408Z,17.10
2018-07-11T04:51:28.808Z,17.10
2018-07-11T04:53:57.182Z,17.10
2018-07-11T04:56:25.720Z,17.10
2018-07-11T04:58:54.247Z,17.20
2018-07-11T05:01:22.411Z,17.20
2018-07-11T05:03:50.755Z,17.20
2018-07-11T05:06:19.146Z,17.30
2018-07-11T05:08:47.552Z,17.30
2018-07-11T05:11:15.920Z,17.30
2018-07-11T05:13:44.177Z,17.40
2018-07-11T05:16:12.571Z,17.40
2018-07-11T05:18:40.864Z,17.50
2018-07-11T05:21:09.224Z,17.50
2018-07-11T05:23:37.595Z,17.50
2018-07-11T05:26:05.950Z,17.40
2018-07-11T05:28:34.333Z,17.40
2018-07-11T05:31:02.673Z,17.50
2018-07-11T05:33:31.003Z,17.50
2018-07-11T05:35:59.377Z,17.60
2018-07-11T05:38:27.779Z,17.70
2018-07-11T05:40:56.184Z,17.70
2018-07-11T05:43:24.527Z,17.80
2018-07-11T05:45:52.879Z,17.90
2018-07-11T05:48:22.013Z,17.90
2018-07-11T05:50:50.376Z,18.00
2018-07-11T05:53:18.683Z,18.10
2018-07-11T05:55:47.105Z,18.10
2018-07-11T05:58:15.473Z,18.20
2018-07-11T06:00:43.872Z,18.20
2018-07-11T06:03:12.258Z,18.20
2018-07-11T06:05:40.650Z,18.20
2018-07-11T06:08:09.007Z,18.20
2018-07-11T06:10:37.346Z,18.20
2018-07-11T06:13:05.816Z,18.20
2018-07-11T06:15:34.168Z,18.20
2018-07-11T06:18:02.529Z,18.30
2018-07-11T06:20:30.926Z,18.30
2018-07-11T06:22:59.333Z,18.30
2018-07-11T06:25:28.164Z,18.30
2018-07-11T06:27:56.695Z,18.30
2018-07-11T06:30:25.049Z,18.40
2018-07-11T06:32:53.377Z,18.40
2018-07-11T06:35:21.779Z,18.50
2018-07-11T06:37:50.127Z,18.50
2018-07-11T06:40:18.500Z,18.50
2018-07-11T06:42:46.908Z,18.60
2018-07-11T06:45:15.193Z,18.60
2018-07-11T06:47:43.536Z,18.60
2018-07-11T06:50:11.953Z,18.60
2018-07-11T06:52:40.321Z,18.70
2018-07-11T06:55:08.648Z,18.70
2018-07-11T06:57:37.083Z,18.70
2018-07-11T07:00:05.496Z,18.70
2018-07-11T07:02:33.812Z,18.70
2018-07-11T07:05:02.200Z,18.70
2018-07-11T07:07:30.516Z,18.70
2018-07-11T07:09:59.400Z,18.70
2018-07-11T07:12:27.822Z,18.70
2018-07-11T07:14:56.153Z,18.70
2018-07-11T07:17:24.868Z,18.70
2018-07-11T07:19:53.387Z,18.70
2018-07-11T07:22:21.754Z,18.80
2018-07-11T07:24:50.136Z,18.80
2018-07-11T07:27:18.517Z,18.70
2018-07-11T07:29:46.886Z,18.80
2018-07-11T07:32:15.324Z,18.80
2018-07-11T07:34:43.746Z,18.80
2018-07-11T07:37:12.077Z,18.80
2018-07-11T07:39:40.450Z,18.80
2018-07-11T07:42:08.875Z,18.80
2018-07-11T07:44:37.281Z,18.90
2018-07-11T07:47:05.703Z,18.90
2018-07-11T07:49:34.046Z,18.90
2018-07-11T07:52:02.455Z,18.90
2018-07-11T07:54:30.846Z,18.90
2018-07-11T07:56:59.621Z,18.90
2018-07-11T07:59:28.012Z,18.90
2018-07-11T08:01:56.644Z,18.90
2018-07-11T08:04:24.987Z,18.90
2018-07-11T08:06:53.703Z,18.90
2018-07-11T08:09:22.027Z,18.90
2018-07-11T08:11:50.391Z,19.00
2018-07-11T08:14:18.771Z,18.90
2018-07-11T08:16:47.731Z,18.90
2018-07-11T08:19:16.142Z,19.00
2018-07-11T08:21:44.561Z,19.10
2018-07-11T08:24:24.137Z,19.00
2018-07-11T08:27:06.539Z,19.00
2018-07-11T08:29:45.912Z,19.00
2018-07-11T08:34:34.311Z,19.10
2018-07-11T08:37:15.069Z,19.10
2018-07-11T08:40:07.328Z,19.20
2018-07-11T08:42:47.137Z,19.20
2018-07-11T08:45:26.877Z,19.30
2018-07-11T08:50:21.725Z,19.40
2018-07-11T08:53:00.195Z,19.40
2018-07-11T08:56:44.808Z,19.50
2018-07-11T09:00:00.961Z,19.50
2018-07-11T09:03:01.855Z,19.60
2018-07-11T09:05:43.202Z,19.60
2018-07-11T09:10:25.411Z,19.60
2018-07-11T09:16:06.972Z,19.70
2018-07-11T09:20:50.305Z,19.80
2018-07-11T09:25:27.597Z,19.70
2018-07-11T09:27:55.989Z,19.70
2018-07-11T09:30:24.377Z,19.70
2018-07-11T09:32:52.744Z,19.60
2018-07-11T09:35:21.132Z,19.60
2018-07-11T09:37:49.444Z,19.60
2018-07-11T09:40:17.831Z,19.60
2018-07-11T09:42:47.074Z,19.60
2018-07-11T09:45:15.512Z,19.60
2018-07-11T09:47:43.914Z,19.50
2018-07-11T09:50:12.728Z,19.50
2018-07-11T09:52:41.212Z,19.60
2018-07-11T09:55:09.569Z,19.50
2018-07-11T09:57:39.247Z,19.60
2018-07-11T10:00:12.268Z,19.60
2018-07-11T10:02:40.940Z,19.60
2018-07-11T10:05:09.411Z,19.60
2018-07-11T10:07:37.800Z,19.60
2018-07-11T10:10:06.177Z,19.70
2018-07-11T10:12:34.563Z,19.70
2018-07-11T10:15:02.857Z,19.70
2018-07-11T10:17:31.176Z,19.70
2018-07-11T10:19:59.528Z,19.70
2018-07-11T10:22:27.886Z,19.70
2018-07-11T10:24:56.228Z,19.70
2018-07-11T10:27:24.548Z,19.70
2018-07-11T10:29:52.950Z,19.70
2018-07-11T10:32:21.364Z,19.80
2018-07-11T10:34:49.820Z,19.80
2018-07-11T10:37:18.216Z,19.70
2018-07-11T10:39:46.639Z,19.70
2018-07-11T10:42:15.322Z,19.70
2018-07-11T10:44:43.733Z,19.70
2018-07-11T10:47:13.464Z,19.60
2018-07-11T10:49:43.032Z,19.60
2018-07-11T10:52:11.480Z,19.70
2018-07-11T10:54:40.096Z,19.60
2018-07-11T10:57:08.619Z,19.70
2018-07-11T10:59:37.840Z,19.60
2018-07-11T11:02:06.288Z,19.70
2018-07-11T11:04:34.684Z,19.70
2018-07-11T11:07:03.020Z,19.70
2018-07-11T11:09:31.342Z,19.70
2018-07-11T11:11:59.794Z,19.70
2018-07-11T11:14:28.109Z,19.70
2018-07-11T11:16:56.503Z,19.70
2018-07-11T11:19:24.884Z,19.70
2018-07-11T11:21:53.359Z,19.70
2018-07-11T11:24:21.744Z,19.60
2018-07-11T11:26:50.018Z,19.60
2018-07-11T11:29:18.358Z,19.60
2018-07-11T11:31:46.700Z,19.60
2018-07-11T11:34:15.064Z,19.60
2018-07-11T11:36:43.421Z,19.60
2018-07-11T11:39:11.770Z,19.60
2018-07-11T11:41:40.315Z,19.60
2018-07-11T11:44:08.657Z,19.50
2018-07-11T11:46:37.032Z,19.60
2018-07-11T11:49:05.463Z,19.50
2018-07-11T11:51:33.905Z,19.60
2018-07-11T11:54:02.344Z,19.60
2018-07-11T11:56:30.752Z,19.70
2018-07-11T11:58:59.140Z,19.70
2018-07-11T12:01:27.584Z,19.70
2018-07-11T12:03:55.969Z,19.70
2018-07-11T12:06:24.503Z,19.80
2018-07-11T12:08:52.871Z,19.80
2018-07-11T12:11:21.287Z,19.80
2018-07-11T12:13:49.606Z,19.70
2018-07-11T12:16:17.945Z,19.80
2018-07-11T12:18:46.336Z,19.80
2018-07-11T12:21:14.758Z,19.90
2018-07-11T12:23:43.020Z,20.00
2018-07-11T12:26:11.960Z,20.00
2018-07-11T12:28:40.364Z,20.00
2018-07-11T12:31:08.708Z,20.00
2018-07-11T12:33:37.040Z,20.10
2018-07-11T12:36:05.403Z,20.20
2018-07-11T12:38:33.879Z,20.20
2018-07-11T12:41:02.252Z,20.30
2018-07-11T12:43:30.660Z,20.30
2018-07-11T12:45:59.160Z,20.40
2018-07-11T12:48:33.427Z,20.40
2018-07-11T12:51:02.332Z,20.40
2018-07-11T12:53:30.774Z,20.30
2018-07-11T12:55:59.219Z,20.40
2018-07-11T12:58:27.735Z,20.40
2018-07-11T13:00:56.104Z,20.50
2018-07-11T13:03:24.914Z,20.60
2018-07-11T13:05:53.302Z,20.70
2018-07-11T13:08:22.204Z,20.80
2018-07-11T13:10:50.918Z,20.90
2018-07-11T13:13:19.618Z,21.00
2018-07-11T13:15:47.929Z,21.10
2018-07-11T13:18:16.244Z,21.10
2018-07-11T13:20:44.601Z,21.10
2018-07-11T13:25:41.188Z,21.10
2018-07-11T13:28:09.516Z,21.10
2018-07-11T13:30:37.895Z,21.10
2018-07-11T13:33:06.311Z,21.00
2018-07-11T13:35:34.801Z,20.90
2018-07-11T13:38:03.215Z,20.90
2018-07-11T13:40:31.821Z,20.90
2018-07-11T13:43:00.158Z,20.90
2018-07-11T13:45:28.549Z,20.90
2018-07-11T13:48:02.639Z,20.90
2018-07-11T13:50:33.224Z,20.90
2018-07-11T13:53:01.980Z,20.90
2018-07-11T13:58:00.068Z,20.90
2018-07-11T14:00:28.648Z,20.90
2018-07-11T14:02:57.128Z,20.90
2018-07-11T14:05:27.427Z,21.00
2018-07-11T14:10:23.835Z,21.00
2018-07-11T14:12:52.209Z,21.00
2018-07-11T14:15:20.623Z,21.00
2018-07-11T14:17:48.987Z,20.90
2018-07-11T14:20:17.312Z,20.70
2018-07-11T14:22:47.253Z,20.70
2018-07-11T14:25:16.093Z,20.70
2018-07-11T14:27:46.630Z,20.60
2018-07-11T14:30:14.933Z,20.60
2018-07-11T14:32:51.645Z,20.60
2018-07-11T14:35:20.143Z,20.50
2018-07-11T14:37:49.376Z,20.40
2018-07-11T14:40:17.871Z,20.40
2018-07-11T14:42:46.582Z,20.40
2018-07-11T14:45:15.304Z,20.30
2018-07-11T14:47:49.150Z,20.30
2018-07-11T14:50:17.957Z,20.30
2018-07-11T14:52:46.934Z,20.40
2018-07-11T14:55:15.365Z,20.40
2018-07-11T14:57:43.784Z,20.40
2018-07-11T15:00:12.176Z,20.40
2018-07-11T15:02:40.584Z,20.40
2018-07-11T15:05:08.939Z,20.40
2018-07-11T15:07:37.505Z,20.40
2018-07-11T15:10:05.928Z,20.40
2018-07-11T15:12:34.392Z,20.40
2018-07-11T15:15:02.777Z,20.40
2018-07-11T15:17:31.636Z,20.30
2018-07-11T15:20:00.054Z,20.20
2018-07-11T15:22:28.440Z,20.20
2018-07-11T15:24:57.216Z,20.20
2018-07-11T15:27:25.823Z,20.10
2018-07-11T15:29:55.286Z,20.10
2018-07-11T15:32:23.681Z,20.00
2018-07-11T15:34:52.073Z,19.90
2018-07-11T15:39:48.524Z,19.80
2018-07-11T15:42:16.962Z,19.80
2018-07-11T15:44:45.339Z,19.80
2018-07-11T15:47:14.258Z,19.90
2018-07-11T15:49:42.678Z,19.80
2018-07-11T15:52:11.207Z,19.80
2018-07-11T15:54:40.321Z,19.80
2018-07-11T15:57:08.796Z,19.80
2018-07-11T15:59:43.851Z,19.80
2018-07-11T16:02:12.124Z,19.80
2018-07-11T16:04:40.696Z,19.80
2018-07-11T16:07:10.046Z,19.80
2018-07-11T16:09:54.839Z,19.80
2018-07-11T16:12:23.844Z,19.80
2018-07-11T16:14:52.191Z,19.80
2018-07-11T16:17:21.316Z,19.80
2018-07-11T16:19:49.700Z,19.90
2018-07-11T16:22:18.136Z,19.90
2018-07-11T16:24:46.626Z,19.90
2018-07-11T16:27:15.014Z,19.90
2018-07-11T16:29:43.613Z,20.00
2018-07-11T16:32:12.097Z,20.00
2018-07-11T16:34:40.504Z,20.00
2018-07-11T16:37:08.725Z,19.90
2018-07-11T16:39:37.138Z,20.00
2018-07-11T16:42:06.595Z,20.00
2018-07-11T16:47:04.892Z,20.00
2018-07-11T16:49:33.365Z,20.00
2018-07-11T16:52:03.009Z,20.00
2018-07-11T16:54:31.641Z,20.00
2018-07-11T16:57:00.895Z,20.00
2018-07-11T16:59:36.808Z,20.00
2018-07-11T17:02:06.279Z,20.00
2018-07-11T17:04:35.205Z,20.00
2018-07-11T17:07:06.657Z,20.00
2018-07-11T17:09:38.525Z,20.00
2018-07-11T17:12:08.478Z,20.00
2018-07-11T17:14:37.048Z,20.00
2018-07-11T17:17:05.505Z,20.00
2018-07-11T17:20:08.764Z,20.00
2018-07-11T17:22:46.696Z,20.10
2018-07-11T17:25:15.040Z,20.00
2018-07-11T17:27:43.459Z,20.10
2018-07-11T17:30:11.873Z,20.10
2018-07-11T17:32:40.226Z,20.10
2018-07-11T17:35:08.698Z,20.10
2018-07-11T17:37:37.937Z,20.10
2018-07-11T17:40:08.080Z,20.10
2018-07-11T17:42:36.537Z,20.20
2018-07-11T17:45:09.364Z,20.20
2018-07-11T17:47:49.053Z,20.20
2018-07-11T17:50:17.536Z,20.20
2018-07-11T17:52:54.036Z,20.20
2018-07-11T17:55:31.775Z,20.30
2018-07-11T17:58:04.520Z,20.30
2018-07-11T18:00:42.661Z,20.40
2018-07-11T18:03:20.273Z,20.40
2018-07-11T18:05:56.457Z,20.40
2018-07-11T18:08:30.450Z,20.40
2018-07-11T18:10:59.450Z,20.50
2018-07-11T18:13:35.373Z,20.40
2018-07-11T18:17:16.645Z,20.40
2018-07-11T18:19:55.207Z,20.40
2018-07-11T18:23:29.464Z,20.40
2018-07-11T18:26:24.889Z,20.40
2018-07-11T18:29:26.230Z,20.40
2018-07-11T18:32:13.442Z,20.40
2018-07-11T18:35:25.784Z,20.40
2018-07-11T18:37:59.296Z,20.40
2018-07-11T18:40:37.520Z,20.40
2018-07-11T18:45:24.497Z,20.30
2018-07-11T18:50:09.476Z,20.30
2018-07-11T18:52:48.449Z,20.30
2018-07-11T18:55:23.554Z,20.30
2018-07-11T18:58:42.032Z,20.30
2018-07-11T19:01:22.736Z,20.30
2018-07-11T19:04:01.615Z,20.30
2018-07-11T19:06:37.441Z,20.20
2018-07-11T19:09:08.308Z,20.20
2018-07-11T19:11:48.082Z,20.20
2018-07-11T19:14:21.880Z,20.20
2018-07-11T19:16:59.407Z,20.20
2018-07-11T19:19:33.006Z,20.20
2018-07-11T19:24:42.292Z,20.20
2018-07-11T19:27:21.260Z,20.10
2018-07-11T19:30:15.728Z,20.10
2018-07-11T19:32:52.580Z,20.10
2018-07-11T19:35:34.063Z,20.10
2018-07-11T19:38:02.824Z,20.00
2018-07-11T19:41:04.415Z,20.10
2018-07-11T19:43:42.063Z,20.00
2018-07-11T19:46:19.888Z,20.00
2018-07-11T19:48:59.698Z,20.00
2018-07-11T19:51:39.760Z,20.00
2018-07-11T19:54:33.940Z,20.00
2018-07-11T19:57:02.496Z,19.90
2018-07-11T19:59:31.022Z,19.90
2018-07-11T20:02:00.351Z,19.90
2018-07-11T20:04:28.824Z,19.90
2018-07-11T20:06:57.270Z,19.90
2018-07-11T20:09:25.997Z,19.90
2018-07-11T20:11:54.525Z,19.80
2018-07-11T20:14:23.105Z,19.80
2018-07-11T20:16:51.808Z,19.80
2018-07-11T20:19:20.268Z,19.80
2018-07-11T20:21:48.626Z,19.70
2018-07-11T20:24:17.125Z,19.70
2018-07-11T20:26:45.582Z,19.70
2018-07-11T20:29:14.058Z,19.60
2018-07-11T20:31:42.480Z,19.60
2018-07-11T20:34:10.846Z,19.50
2018-07-11T20:36:39.216Z,19.50
2018-07-11T20:39:07.728Z,19.50
2018-07-11T20:41:36.166Z,19.40
2018-07-11T20:44:04.819Z,19.30
2018-07-11T20:46:34.303Z,19.30
2018-07-11T20:49:08.218Z,19.30
2018-07-11T20:51:36.632Z,19.20
2018-07-11T20:54:05.264Z,19.20
2018-07-11T20:56:33.870Z,19.20
2018-07-11T20:59:13.659Z,19.20
2018-07-11T21:01:53.771Z,19.10
2018-07-11T21:05:02.182Z,19.10
2018-07-11T21:08:40.344Z,19.10
2018-07-11T21:13:22.186Z,19.00
2018-07-11T21:16:01.605Z,18.90
2018-07-11T21:18:47.070Z,18.90
2018-07-11T21:21:15.633Z,18.90
2018-07-11T21:23:44.083Z,18.90
2018-07-11T21:26:12.542Z,18.80
2018-07-11T21:28:41.042Z,18.80
2018-07-11T21:31:09.810Z,18.80
2018-07-11T21:33:38.309Z,18.80
2018-07-11T21:36:06.781Z,18.80
2018-07-11T21:38:35.322Z,18.80
2018-07-11T21:41:03.794Z,18.80
2018-07-11T21:43:32.609Z,18.80
2018-07-11T21:46:01.091Z,18.80
2018-07-11T21:48:29.600Z,18.80
2018-07-11T21:50:58.042Z,18.80
2018-07-11T21:53:26.532Z,18.80
2018-07-11T21:55:55.008Z,18.80
2018-07-11T21:58:23.514Z,18.80
2018-07-11T22:00:51.950Z,18.80
2018-07-11T22:03:20.391Z,18.80
2018-07-11T22:05:48.901Z,18.90
2018-07-11T22:08:17.374Z,18.90
2018-07-11T22:10:45.884Z,18.90
2018-07-11T22:13:14.406Z,18.90
2018-07-11T22:15:42.883Z,18.90
2018-07-11T22:18:23.121Z,18.90
2018-07-11T22:20:50.513Z,18.90
2018-07-11T22:23:17.850Z,18.90
2018-07-11T22:25:45.646Z,18.90
2018-07-11T22:28:13.029Z,18.80
2018-07-11T22:30:40.414Z,18.80
2018-07-11T22:33:07.786Z,18.80
2018-07-11T22:35:35.390Z,18.80
2018-07-11T22:38:02.791Z,18.80
2018-07-11T22:40:30.169Z,18.80
2018-07-11T22:42:57.541Z,18.80
2018-07-11T22:45:24.937Z,18.80
2018-07-11T22:47:52.361Z,18.80
2018-07-11T22:50:19.759Z,18.80
2018-07-11T22:52:47.138Z,18.80
2018-07-11T22:55:14.525Z,18.80
2018-07-11T22:57:41.878Z,18.80
2018-07-11T23:00:09.283Z,18.80
2018-07-11T23:02:37.057Z,18.70
2018-07-11T23:05:04.470Z,18.70
2018-07-11T23:07:31.855Z,18.70
2018-07-11T23:09:59.250Z,18.70
2018-07-11T23:12:26.664Z,18.70
2018-07-11T23:14:54.393Z,18.70
2018-07-11T23:17:28.748Z,18.60
2018-07-11T23:19:56.133Z,18.60
2018-07-11T23:22:23.518Z,18.60
2018-07-11T23:24:51.226Z,18.60
2018-07-11T23:27:18.631Z,18.60
2018-07-11T23:29:46.070Z,18.60
2018-07-11T23:32:13.465Z,18.60
2018-07-11T23:34:40.915Z,18.60
2018-07-11T23:37:08.309Z,18.50
2018-07-11T23:39:35.718Z,18.50
2018-07-11T23:42:03.574Z,18.50
2018-07-11T23:44:30.928Z,18.50
2018-07-11T23:46:58.372Z,18.50
2018-07-11T23:49:25.749Z,18.50
2018-07-11T23:51:53.122Z,18.50
2018-07-11T23:54:20.520Z,18.50
2018-07-11T23:56:47.914Z,18.50
2018-07-11T23:59:15.303Z,18.40
